createdAt,value
2022-09-11T00:01:55.646Z,22.77
2022-09-11T00:04:22.967Z,26.07
2022-09-11T00:06:52.941Z,25.67
2022-09-11T00:09:22.691Z,28.87
2022-09-11T00:11:53.248Z,27.07
2022-09-11T00:14:34.091Z,28.50
2022-09-11T00:17:07.682Z,30.53
2022-09-11T00:19:36.302Z,28.83
2022-09-11T00:22:03.568Z,29.10
2022-09-11T00:24:33.395Z,30.33
2022-09-11T00:27:00.906Z,29.23
2022-09-11T00:29:28.465Z,29.50
2022-09-11T00:31:58.782Z,27.37
2022-09-11T00:34:26.432Z,28.53
2022-09-11T00:36:53.674Z,28.50
2022-09-11T00:39:21.328Z,28.33
2022-09-11T00:41:49.318Z,27.83
2022-09-11T00:44:19.729Z,27.87
2022-09-11T00:46:55.873Z,28.60
2022-09-11T00:49:31.410Z,29.33
2022-09-11T00:52:13.215Z,29.87
2022-09-11T00:54:49.568Z,29.00
2022-09-11T00:57:24.020Z,29.10
2022-09-11T00:59:54.565Z,29.10
2022-09-11T01:02:26.795Z,29.73
2022-09-11T01:04:55.294Z,31.70
2022-09-11T01:07:24.205Z,31.77
2022-09-11T01:09:52.170Z,30.90
2022-09-11T01:12:26.040Z,33.70
2022-09-11T01:14:59.840Z,31.63
2022-09-11T01:17:27.053Z,35.33
2022-09-11T01:20:08.019Z,33.83
2022-09-11T01:22:38.346Z,32.00
2022-09-11T01:25:20.975Z,33.37
2022-09-11T01:27:52.806Z,35.87
2022-09-11T01:30:21.454Z,38.83
2022-09-11T01:32:48.834Z,38.77
2022-09-11T01:35:42.887Z,37.70
2022-09-11T01:38:14.904Z,39.23
2022-09-11T01:40:49.230Z,38.33
2022-09-11T01:43:22.081Z,41.60
2022-09-11T01:45:50.863Z,40.00
2022-09-11T01:48:19.963Z,43.77
2022-09-11T01:50:47.802Z,45.23
2022-09-11T01:53:17.940Z,46.90
2022-09-11T01:55:49.080Z,48.63
2022-09-11T01:58:23.404Z,51.70
2022-09-11T02:00:55.218Z,45.83
2022-09-11T02:03:26.989Z,47.10
2022-09-11T02:06:05.763Z,42.93
2022-09-11T02:09:00.465Z,44.40
2022-09-11T02:11:31.858Z,50.37
2022-09-11T02:14:10.184Z,52.27
2022-09-11T02:16:49.604Z,55.90
2022-09-11T02:19:18.332Z,52.13
2022-09-11T02:21:47.801Z,53.30
2022-09-11T02:24:16.020Z,53.00
2022-09-11T02:26:50.883Z,52.27
2022-09-11T02:29:20.841Z,53.90
2022-09-11T02:31:49.534Z,50.17
2022-09-11T02:34:18.008Z,52.70
2022-09-11T02:36:54.731Z,54.07
2022-09-11T02:39:29.075Z,50.97
2022-09-11T02:42:07.075Z,55.13
2022-09-11T02:44:44.272Z,51.77
2022-09-11T02:47:29.471Z,65.93
2022-09-11T02:50:05.974Z,57.80
2022-09-11T02:52:36.172Z,53.70
2022-09-11T02:55:11.463Z,56.40
2022-09-11T02:57:38.765Z,58.93
2022-09-11T03:00:08.033Z,57.07
2022-09-11T03:02:37.537Z,56.50
2022-09-11T03:05:07.385Z,59.13
2022-09-11T03:07:34.768Z,71.37
2022-09-11T03:10:02.399Z,67.97
2022-09-11T03:12:30.506Z,71.40
2022-09-11T03:14:57.887Z,67.10
2022-09-11T03:17:25.518Z,63.40
2022-09-11T03:19:52.828Z,68.03
2022-09-11T03:22:20.168Z,64.47
2022-09-11T03:24:48.215Z,70.57
2022-09-11T03:27:15.684Z,68.80
2022-09-11T03:29:44.735Z,68.27
2022-09-11T03:32:11.936Z,72.07
2022-09-11T03:34:39.287Z,71.20
2022-09-11T03:37:08.347Z,70.30
2022-09-11T03:39:35.888Z,73.40
2022-09-11T03:42:03.173Z,73.50
2022-09-11T03:44:33.202Z,74.23
2022-09-11T03:47:03.288Z,76.83
2022-09-11T03:49:30.841Z,73.80
2022-09-11T03:52:00.972Z,69.40
2022-09-11T03:54:28.655Z,67.43
2022-09-11T03:56:56.682Z,66.10
2022-09-11T03:59:25.749Z,68.80
2022-09-11T04:01:53.114Z,66.67
2022-09-11T04:04:21.151Z,68.40
2022-09-11T04:06:51.807Z,69.43
2022-09-11T04:09:19.315Z,66.83
2022-09-11T04:11:49.213Z,65.70
2022-09-11T04:14:24.307Z,67.53
2022-09-11T04:16:54.033Z,64.57
2022-09-11T04:19:22.764Z,70.00
2022-09-11T04:21:50.598Z,68.77
2022-09-11T04:24:17.932Z,65.60
2022-09-11T04:26:47.262Z,67.43
2022-09-11T04:29:22.508Z,71.63
2022-09-11T04:31:51.254Z,71.13
2022-09-11T04:34:18.713Z,67.07
2022-09-11T04:36:46.007Z,69.57
2022-09-11T04:39:18.757Z,66.17
2022-09-11T04:41:47.097Z,67.57
2022-09-11T04:44:14.790Z,66.73
2022-09-11T04:46:45.175Z,67.60
2022-09-11T04:49:13.422Z,64.53
2022-09-11T04:51:44.377Z,65.87
2022-09-11T04:54:15.637Z,67.40
2022-09-11T04:56:43.143Z,62.27
2022-09-11T04:59:33.258Z,65.47
2022-09-11T05:02:12.429Z,61.83
2022-09-11T05:04:43.043Z,62.80
2022-09-11T05:07:13.340Z,61.63
2022-09-11T05:09:42.456Z,57.60
2022-09-11T05:12:11.880Z,60.57
2022-09-11T05:14:39.760Z,58.17
2022-09-11T05:17:07.154Z,58.13
2022-09-11T05:19:38.917Z,55.03
2022-09-11T05:22:07.587Z,54.23
2022-09-11T05:24:35.922Z,53.00
2022-09-11T05:27:03.339Z,53.40
2022-09-11T05:29:32.679Z,53.40
2022-09-11T05:32:08.391Z,54.30
2022-09-11T05:34:36.028Z,53.83
2022-09-11T05:37:05.413Z,53.43
2022-09-11T05:39:38.387Z,56.33
2022-09-11T05:42:07.306Z,57.63
2022-09-11T05:44:37.511Z,53.40
2022-09-11T05:47:09.460Z,56.17
2022-09-11T05:49:36.785Z,56.43
2022-09-11T05:52:06.576Z,56.70
2022-09-11T05:54:36.169Z,56.90
2022-09-11T05:57:07.769Z,53.73
2022-09-11T05:59:38.447Z,53.20
2022-09-11T06:02:06.456Z,52.40
2022-09-11T06:04:45.128Z,47.40
2022-09-11T06:07:13.299Z,46.20
2022-09-11T06:09:42.902Z,45.67
2022-09-11T06:12:12.404Z,45.17
2022-09-11T06:14:43.195Z,47.33
2022-09-11T06:17:10.959Z,46.07
2022-09-11T06:19:41.927Z,41.77
2022-09-11T06:22:10.379Z,45.37
2022-09-11T06:24:45.515Z,43.70
2022-09-11T06:27:13.210Z,43.53
2022-09-11T06:29:44.997Z,39.70
2022-09-11T06:32:13.083Z,37.03
2022-09-11T06:34:44.200Z,38.30
2022-09-11T06:37:14.749Z,39.07
2022-09-11T06:39:42.320Z,35.97
2022-09-11T06:42:13.197Z,36.37
2022-09-11T06:44:42.058Z,37.37
2022-09-11T06:47:13.783Z,37.43
2022-09-11T06:49:41.432Z,36.77
2022-09-11T06:52:34.712Z,35.10
2022-09-11T06:55:28.301Z,32.70
2022-09-11T06:58:05.394Z,33.40
2022-09-11T07:00:33.919Z,34.53
2022-09-11T07:03:02.381Z,32.73
2022-09-11T07:05:30.228Z,34.07
2022-09-11T07:08:00.999Z,35.07
2022-09-11T07:10:33.093Z,30.93
2022-09-11T07:13:01.932Z,33.50
2022-09-11T07:15:32.164Z,31.27
2022-09-11T07:18:02.054Z,31.63
2022-09-11T07:20:31.451Z,29.20
2022-09-11T07:22:58.982Z,29.27
2022-09-11T07:25:28.464Z,28.07
2022-09-11T07:27:55.876Z,27.90
2022-09-11T07:30:27.465Z,26.67
2022-09-11T07:32:59.255Z,27.63
2022-09-11T07:35:26.723Z,27.10
2022-09-11T07:37:56.115Z,27.13
2022-09-11T07:40:26.536Z,27.33
2022-09-11T07:42:54.337Z,28.63
2022-09-11T07:45:22.798Z,26.87
2022-09-11T07:47:50.959Z,28.47
2022-09-11T07:50:18.392Z,27.50
2022-09-11T07:52:46.049Z,28.33
2022-09-11T07:55:14.385Z,30.50
2022-09-11T07:57:41.952Z,28.30
2022-09-11T08:00:11.274Z,28.47
2022-09-11T08:03:00.356Z,28.33
2022-09-11T08:05:33.939Z,29.43
2022-09-11T08:08:01.715Z,28.90
2022-09-11T08:10:30.191Z,26.87
2022-09-11T08:13:01.944Z,28.13
2022-09-11T08:15:33.285Z,27.70
2022-09-11T08:18:02.598Z,29.67
2022-09-11T08:20:35.231Z,29.70
2022-09-11T08:23:03.172Z,28.43
2022-09-11T08:25:31.026Z,28.77
2022-09-11T08:28:02.304Z,26.80
2022-09-11T08:30:29.823Z,28.37
2022-09-11T08:32:57.240Z,28.77
2022-09-11T08:35:25.754Z,26.47
2022-09-11T08:37:55.584Z,28.67
2022-09-11T08:40:24.137Z,28.23
2022-09-11T08:42:52.764Z,26.20
2022-09-11T08:45:21.634Z,26.80
2022-09-11T08:47:58.888Z,26.07
2022-09-11T08:50:49.482Z,26.70
2022-09-11T08:53:18.902Z,25.27
2022-09-11T08:55:55.155Z,27.37
2022-09-11T08:58:36.563Z,25.20
2022-09-11T09:01:31.942Z,24.90
2022-09-11T09:04:21.796Z,25.37
2022-09-11T09:06:49.154Z,22.80
2022-09-11T09:09:36.784Z,24.00
2022-09-11T09:12:11.670Z,22.77
2022-09-11T09:14:39.081Z,21.63
2022-09-11T09:17:14.268Z,21.23
2022-09-11T09:19:46.550Z,19.30
2022-09-11T09:22:20.066Z,20.23
2022-09-11T09:24:55.820Z,18.70
2022-09-11T09:27:32.186Z,18.50
2022-09-11T09:30:01.638Z,18.63
2022-09-11T09:32:36.908Z,17.67
2022-09-11T09:35:10.936Z,18.87
2022-09-11T09:37:39.150Z,18.43
2022-09-11T09:40:09.426Z,18.63
2022-09-11T09:42:55.280Z,19.30
2022-09-11T09:45:44.831Z,20.73
2022-09-11T09:48:12.898Z,18.50
2022-09-11T09:50:41.780Z,19.03
2022-09-11T09:53:34.767Z,19.57
2022-09-11T09:56:05.668Z,17.80
2022-09-11T09:58:37.031Z,16.93
2022-09-11T10:01:08.325Z,17.53
2022-09-11T10:03:35.902Z,16.40
2022-09-11T10:06:03.304Z,15.30
2022-09-11T10:08:35.518Z,14.97
2022-09-11T10:11:04.627Z,15.60
2022-09-11T10:13:33.546Z,15.40
2022-09-11T10:16:03.877Z,15.20
2022-09-11T10:18:32.241Z,15.20
2022-09-11T10:21:18.141Z,14.77
2022-09-11T10:23:51.271Z,15.50
2022-09-11T10:26:25.619Z,15.07
2022-09-11T10:28:54.689Z,14.37
2022-09-11T10:31:22.955Z,14.87
2022-09-11T10:34:00.624Z,13.20
2022-09-11T10:36:29.570Z,13.30
2022-09-11T10:39:02.033Z,12.93
2022-09-11T10:41:34.173Z,11.80
2022-09-11T10:44:05.459Z,11.95
2022-09-11T10:46:41.374Z,11.35
2022-09-11T10:49:10.555Z,11.80
2022-09-11T10:51:42.174Z,11.88
2022-09-11T10:54:28.006Z,11.53
2022-09-11T10:57:04.705Z,11.15
2022-09-11T10:59:42.009Z,12.00
2022-09-11T11:02:21.724Z,12.40
2022-09-11T11:04:58.381Z,11.90
2022-09-11T11:07:40.574Z,11.35
2022-09-11T11:10:24.721Z,11.30
2022-09-11T11:12:59.854Z,12.10
2022-09-11T11:16:23.579Z,12.90
2022-09-11T11:19:03.868Z,13.00
2022-09-11T11:21:37.462Z,13.07
2022-09-11T11:24:29.105Z,12.73
2022-09-11T11:27:04.638Z,12.63
2022-09-11T11:29:50.768Z,13.07
2022-09-11T11:32:23.870Z,13.00
2022-09-11T11:35:10.347Z,11.70
2022-09-11T11:37:41.446Z,12.35
2022-09-11T11:40:21.357Z,12.18
2022-09-11T11:42:56.377Z,12.02
2022-09-11T11:45:27.696Z,12.82
2022-09-11T11:47:56.624Z,12.82
2022-09-11T11:50:31.849Z,12.27
2022-09-11T11:53:17.108Z,11.98
2022-09-11T11:56:03.666Z,11.45
2022-09-11T11:58:47.409Z,10.68
2022-09-11T12:01:19.741Z,10.57
2022-09-11T12:04:00.241Z,10.90
2022-09-11T12:06:29.066Z,12.45
2022-09-11T12:08:57.210Z,12.55
2022-09-11T12:11:30.513Z,11.43
2022-09-11T12:13:58.124Z,11.15
2022-09-11T12:16:31.945Z,10.88
2022-09-11T12:19:19.757Z,10.65
2022-09-11T12:21:53.190Z,12.43
2022-09-11T12:24:25.575Z,10.02
2022-09-11T12:27:12.021Z,9.40
2022-09-11T12:30:07.724Z,9.88
2022-09-11T12:32:42.792Z,8.70
2022-09-11T12:35:34.849Z,10.05
2022-09-11T12:38:15.627Z,9.27
2022-09-11T12:40:57.338Z,9.45
2022-09-11T12:43:29.709Z,7.97
2022-09-11T12:45:57.373Z,7.93
2022-09-11T12:48:33.359Z,7.45
2022-09-11T12:51:01.228Z,7.35
2022-09-11T12:53:33.305Z,7.57
2022-09-11T12:56:00.717Z,7.43
2022-09-11T12:58:41.390Z,8.23
2022-09-11T13:01:13.570Z,7.97
2022-09-11T13:03:53.395Z,8.68
2022-09-11T13:06:21.374Z,8.25
2022-09-11T13:08:51.013Z,7.60
2022-09-11T13:11:38.297Z,8.27
2022-09-11T13:14:28.177Z,6.80
2022-09-11T13:17:00.604Z,8.38
2022-09-11T13:19:35.822Z,6.45
2022-09-11T13:22:19.262Z,7.93
2022-09-11T13:24:46.630Z,7.60
2022-09-11T13:27:17.518Z,6.28
2022-09-11T13:29:48.460Z,7.03
2022-09-11T13:32:17.462Z,7.15
2022-09-11T13:34:46.513Z,7.28
2022-09-11T13:37:16.374Z,6.72
2022-09-11T13:39:44.683Z,6.32
2022-09-11T13:42:17.780Z,5.53
2022-09-11T13:44:47.826Z,5.25
2022-09-11T13:47:42.521Z,5.40
2022-09-11T13:50:14.921Z,4.88
2022-09-11T13:52:43.550Z,4.05
2022-09-11T13:55:19.336Z,4.70
2022-09-11T13:57:53.829Z,4.20
2022-09-11T14:00:42.109Z,3.78
2022-09-11T14:03:28.149Z,4.93
2022-09-11T14:05:58.868Z,5.05
2022-09-11T14:08:32.768Z,6.00
2022-09-11T14:11:11.404Z,4.72
2022-09-11T14:13:53.305Z,4.65
2022-09-11T14:16:23.779Z,4.82
2022-09-11T14:18:59.491Z,4.60
2022-09-11T14:21:32.718Z,4.85
2022-09-11T14:24:00.578Z,5.13
2022-09-11T14:26:31.014Z,4.47
2022-09-11T14:29:05.361Z,4.55
2022-09-11T14:31:34.231Z,4.95
2022-09-11T14:34:16.283Z,4.03
2022-09-11T14:36:45.235Z,4.50
2022-09-11T14:39:14.708Z,4.20
2022-09-11T14:41:44.045Z,3.95
2022-09-11T14:44:13.987Z,3.55
2022-09-11T14:46:41.482Z,4.13
2022-09-11T14:49:09.501Z,3.47
2022-09-11T14:51:38.181Z,3.97
2022-09-11T14:54:06.265Z,3.88
2022-09-11T14:56:33.641Z,3.30
2022-09-11T14:59:01.003Z,3.85
2022-09-11T15:01:28.472Z,3.72
2022-09-11T15:03:56.396Z,3.80
2022-09-11T15:06:24.282Z,3.08
2022-09-11T15:08:51.927Z,3.22
2022-09-11T15:11:19.355Z,4.00
2022-09-11T15:14:10.871Z,3.63
2022-09-11T15:16:34.110Z,3.72
2022-09-11T15:19:01.452Z,4.07
2022-09-11T15:21:28.945Z,3.50
2022-09-11T15:23:56.414Z,3.10
2022-09-11T15:26:23.856Z,3.50
2022-09-11T15:28:53.278Z,3.42
2022-09-11T15:31:20.703Z,3.28
2022-09-11T15:33:52.063Z,3.90
2022-09-11T15:36:20.389Z,3.80
2022-09-11T15:38:56.530Z,3.35
2022-09-11T15:41:25.363Z,3.92
2022-09-11T15:43:52.764Z,3.72
2022-09-11T15:46:21.218Z,3.53
2022-09-11T15:48:49.536Z,4.10
2022-09-11T15:51:18.197Z,4.47
2022-09-11T15:53:45.687Z,3.80
2022-09-11T15:56:15.265Z,4.28
2022-09-11T15:58:44.736Z,3.40
2022-09-11T16:01:17.911Z,3.42
2022-09-11T16:03:45.508Z,3.08
2022-09-11T16:06:12.917Z,3.80
2022-09-11T16:08:40.871Z,3.08
2022-09-11T16:11:10.063Z,3.80
2022-09-11T16:13:37.509Z,3.53
2022-09-11T16:16:06.297Z,4.05
2022-09-11T16:18:37.504Z,3.65
2022-09-11T16:21:05.646Z,3.67
2022-09-11T16:23:34.307Z,3.40
2022-09-11T16:26:05.831Z,4.28
2022-09-11T16:28:34.182Z,3.97
2022-09-11T16:31:02.670Z,3.40
2022-09-11T16:33:31.006Z,3.42
2022-09-11T16:36:07.617Z,3.70
2022-09-11T16:38:36.590Z,3.65
2022-09-11T16:41:07.535Z,3.72
2022-09-11T16:43:41.991Z,3.42
2022-09-11T16:46:09.900Z,2.60
2022-09-11T16:48:38.171Z,3.20
2022-09-11T16:51:06.014Z,3.65
2022-09-11T16:53:34.246Z,3.10
2022-09-11T16:56:09.851Z,3.38
2022-09-11T16:58:37.933Z,3.58
2022-09-11T17:01:10.511Z,3.30
2022-09-11T17:03:41.570Z,3.35
2022-09-11T17:06:09.463Z,3.78
2022-09-11T17:08:39.150Z,3.50
2022-09-11T17:11:09.725Z,3.58
2022-09-11T17:13:37.288Z,3.97
2022-09-11T17:16:16.341Z,4.05
2022-09-11T17:19:05.123Z,5.10
2022-09-11T17:21:37.785Z,4.28
2022-09-11T17:24:06.263Z,4.25
2022-09-11T17:26:33.885Z,4.00
2022-09-11T17:29:05.133Z,4.25
2022-09-11T17:31:32.645Z,4.63
2022-09-11T17:34:00.096Z,4.60
2022-09-11T17:36:27.529Z,4.20
2022-09-11T17:38:55.624Z,4.72
2022-09-11T17:41:23.000Z,5.20
2022-09-11T17:43:50.509Z,4.00
2022-09-11T17:46:19.856Z,4.57
2022-09-11T17:48:47.721Z,4.27
2022-09-11T17:51:16.594Z,5.40
2022-09-11T17:53:46.271Z,4.47
2022-09-11T17:56:20.223Z,5.07
2022-09-11T17:58:51.952Z,5.33
2022-09-11T18:01:19.975Z,4.57
2022-09-11T18:03:54.732Z,4.63
2022-09-11T18:06:25.405Z,5.00
2022-09-11T18:08:54.428Z,5.57
2022-09-11T18:11:22.068Z,5.07
2022-09-11T18:13:49.434Z,5.80
2022-09-11T18:16:17.791Z,6.00
2022-09-11T18:18:45.157Z,5.50
2022-09-11T18:21:12.937Z,15.77
2022-09-11T18:23:42.504Z,18.67
2022-09-11T18:26:11.062Z,9.87
2022-09-11T18:28:39.867Z,6.30
2022-09-11T18:31:07.581Z,6.40
2022-09-11T18:33:35.073Z,5.73
2022-09-11T18:36:08.716Z,4.97
2022-09-11T18:38:37.511Z,5.27
2022-09-11T18:41:05.178Z,6.27
2022-09-11T18:43:32.688Z,5.83
2022-09-11T18:46:02.783Z,6.00
2022-09-11T18:48:30.162Z,6.20
2022-09-11T18:51:00.043Z,6.07
2022-09-11T18:53:27.652Z,6.10
2022-09-11T18:56:02.086Z,5.93
2022-09-11T18:58:33.443Z,6.70
2022-09-11T19:01:05.703Z,6.40
2022-09-11T19:03:33.680Z,5.93
2022-09-11T19:06:06.571Z,6.53
2022-09-11T19:08:34.162Z,6.50
2022-09-11T19:11:06.331Z,6.23
2022-09-11T19:13:33.768Z,6.23
2022-09-11T19:16:01.409Z,6.50
2022-09-11T19:18:28.877Z,6.07
2022-09-11T19:21:01.954Z,7.30
2022-09-11T19:23:34.138Z,7.00
2022-09-11T19:26:03.340Z,6.33
2022-09-11T19:28:32.317Z,6.53
2022-09-11T19:31:00.901Z,6.53
2022-09-11T19:33:31.703Z,6.70
2022-09-11T19:36:04.382Z,6.10
2022-09-11T19:38:33.400Z,6.37
2022-09-11T19:41:00.858Z,9.60
2022-09-11T19:43:32.074Z,10.20
2022-09-11T19:46:19.514Z,8.03
2022-09-11T19:48:52.096Z,7.80
2022-09-11T19:51:21.556Z,8.93
2022-09-11T19:53:49.781Z,7.33
2022-09-11T19:56:17.817Z,9.47
2022-09-11T19:58:45.199Z,10.37
2022-09-11T20:01:14.065Z,9.63
2022-09-11T20:03:43.372Z,9.43
